createdAt,value
2022-07-29T03:49:38.749Z,19.4
2022-07-29T03:51:53.589Z,19.4
2022-07-29T03:54:10.229Z,19.3
2022-07-29T03:56:23.456Z,12.1
2022-07-29T03:58:38.449Z,18.5
2022-07-29T04:00:52.949Z,18.3
2022-07-29T04:03:10.807Z,19.2
2022-07-29T04:05:22.650Z,18.8
2022-07-29T04:07:37.605Z,19.4
2022-07-29T04:09:52.483Z,19.1
2022-07-29T04:12:20.788Z,19.1
2022-07-29T04:14:35.698Z,19.9
2022-07-29T04:16:50.701Z,20
2022-07-29T04:19:05.540Z,19.8
2022-07-29T04:21:20.319Z,20.3
2022-07-29T04:23:35.153Z,19.8
2022-07-29T04:25:49.915Z,20.1
2022-07-29T04:28:04.788Z,20.6
2022-07-29T04:30:19.598Z,20.7
2022-07-29T04:32:34.356Z,22.2
2022-07-29T04:34:49.385Z,20.6
2022-07-29T04:37:15.838Z,21.1
2022-07-29T04:39:30.694Z,22.1
2022-07-29T04:41:45.518Z,21.3
2022-07-29T04:44:00.369Z,21.2
2022-07-29T04:46:15.215Z,21.6
2022-07-29T04:48:29.962Z,21.8
2022-07-29T04:50:44.945Z,21.9
2022-07-29T04:52:59.917Z,22.9
2022-07-29T04:55:14.644Z,21.8
2022-07-29T04:57:29.546Z,22.4
2022-07-29T04:59:44.337Z,22.8
2022-07-29T05:01:59.243Z,22.1
2022-07-29T05:04:14.266Z,22.2
2022-07-29T05:06:29.284Z,22.4
2022-07-29T05:08:43.688Z,21.8
2022-07-29T05:10:58.621Z,22.3
2022-07-29T05:13:13.291Z,22.4
2022-07-29T05:15:32.522Z,22.7
2022-07-29T05:17:47.290Z,22.5
2022-07-29T05:20:02.285Z,22.4
2022-07-29T05:22:17.045Z,23.1
2022-07-29T05:24:31.877Z,23.2
2022-07-29T05:26:46.803Z,24.5
2022-07-29T05:29:01.754Z,22.9
2022-07-29T05:31:48.036Z,22.6
2022-07-29T05:34:09.391Z,22.6
2022-07-29T05:36:24.437Z,23.1
2022-07-29T05:38:39.061Z,23.5
2022-07-29T05:41:06.418Z,23.4
2022-07-29T05:43:21.107Z,23.3
2022-07-29T05:45:35.955Z,23
2022-07-29T05:47:51.101Z,24.1
2022-07-29T05:50:06.446Z,23.9
2022-07-29T05:52:20.890Z,23.8
2022-07-29T05:54:35.935Z,24
2022-07-29T05:56:50.843Z,23.8
2022-07-29T05:59:05.774Z,23.8
2022-07-29T06:01:20.584Z,23.8
2022-07-29T06:03:35.463Z,23.3
2022-07-29T06:05:50.182Z,23.8
2022-07-29T06:08:05.174Z,24.4
2022-07-29T06:10:20.286Z,24.6
2022-07-29T06:12:35.188Z,23.9
2022-07-29T06:14:53.741Z,24.5
2022-07-29T06:17:04.554Z,24.1
2022-07-29T06:19:19.615Z,24.1
2022-07-29T06:21:34.186Z,24.4
2022-07-29T06:23:49.075Z,24.6
2022-07-29T06:26:03.810Z,24.6
2022-07-29T06:28:18.668Z,24.8
2022-07-29T06:30:33.709Z,24.9
2022-07-29T06:32:48.446Z,24.3
2022-07-29T06:35:24.732Z,24.4
2022-07-29T06:37:42.060Z,25.2
2022-07-29T06:40:06.167Z,25.3
2022-07-29T06:42:21.655Z,24.9
2022-07-29T06:44:37.280Z,24.9
2022-07-29T06:46:52.127Z,27
2022-07-29T06:49:07.022Z,25.7
2022-07-29T06:51:23.013Z,25.8
2022-07-29T06:53:36.944Z,26.4
2022-07-29T06:55:51.571Z,26.2
2022-07-29T06:58:06.304Z,25.9
2022-07-29T07:00:21.303Z,27.9
2022-07-29T07:02:36.579Z,26.8
2022-07-29T07:04:50.803Z,26.9
2022-07-29T07:07:05.770Z,26.7
2022-07-29T07:09:21.086Z,26.1
2022-07-29T07:11:35.490Z,26.6
2022-07-29T07:13:50.247Z,26.9
2022-07-29T07:16:05.120Z,28.3
2022-07-29T07:20:34.847Z,26.9
2022-07-29T07:22:49.650Z,27
2022-07-29T07:25:04.566Z,26.6
2022-07-29T07:29:34.257Z,27.8
2022-07-29T07:31:49.282Z,27.3
2022-07-29T07:34:03.945Z,27.9
2022-07-29T07:36:18.834Z,27.9
2022-07-29T07:38:33.660Z,29
2022-07-29T07:40:48.506Z,28.4
2022-07-29T07:43:04.281Z,27.4
2022-07-29T07:45:29.959Z,27.8
2022-07-29T07:47:44.866Z,28.4
2022-07-29T07:49:59.592Z,29.9
2022-07-29T07:52:14.603Z,29.3
2022-07-29T07:54:29.505Z,29.2
2022-07-29T07:56:59.719Z,29.1
2022-07-29T07:59:14.681Z,30.4
2022-07-29T08:01:29.535Z,32.1
2022-07-29T08:03:52.423Z,31.5
2022-07-29T08:06:07.222Z,32
2022-07-29T08:08:22.100Z,32.1
2022-07-29T08:10:46.246Z,32.6
2022-07-29T08:13:00.880Z,32.1
2022-07-29T08:15:15.643Z,33.3
2022-07-29T08:17:30.543Z,34.3
2022-07-29T08:19:45.446Z,34.4
2022-07-29T08:22:00.220Z,34.1
2022-07-29T08:24:20.400Z,33.8
2022-07-29T08:26:35.411Z,35
2022-07-29T08:29:01.722Z,34.4
2022-07-29T08:31:16.830Z,35.1
2022-07-29T08:33:42.549Z,34.9
2022-07-29T08:35:57.434Z,36.3
2022-07-29T08:38:12.382Z,35.9
2022-07-29T08:40:30.677Z,36.4
2022-07-29T08:42:44.313Z,36.4
2022-07-29T08:44:59.277Z,36.6
2022-07-29T08:47:14.036Z,37.2
2022-07-29T08:49:28.971Z,38.1
2022-07-29T08:51:46.582Z,37.1
2022-07-29T10:42:55.596Z,34.1
2022-07-29T10:45:10.391Z,34
2022-07-29T10:47:25.202Z,32.8
2022-07-29T10:49:41.155Z,31.1
2022-07-29T10:51:55.231Z,32.1
2022-07-29T10:54:09.873Z,32.8
2022-07-29T12:08:37.869Z,33.3
2022-07-29T12:10:53.022Z,31.9
2022-07-29T12:13:07.766Z,32.1
2022-07-29T12:15:24.135Z,32.6
2022-07-29T12:17:41.046Z,31.3
2022-07-29T12:19:56.034Z,31.1
2022-07-29T12:22:10.903Z,31.4
2022-07-29T12:24:26.461Z,31.6
2022-07-29T12:26:54.266Z,30.9
2022-07-29T12:29:11.565Z,31
2022-07-29T12:31:42.665Z,30.1
2022-07-29T12:33:46.567Z,31.6
2022-07-29T12:36:07.703Z,31.9
2022-07-29T12:38:20.097Z,32.3
2022-07-29T12:40:34.920Z,32.8
2022-07-29T12:42:49.794Z,32.2
2022-07-29T12:45:04.679Z,30.7
2022-07-29T12:47:19.498Z,31
2022-07-29T12:49:37.950Z,31.8
2022-07-29T12:51:49.153Z,31.2
2022-07-29T12:54:04.023Z,31.2
2022-07-29T12:56:45.235Z,31.3
2022-07-29T12:58:51.074Z,31.1
2022-07-29T13:01:03.167Z,30.9
2022-07-29T13:03:17.700Z,31
2022-07-29T13:05:32.653Z,31.2
2022-07-29T13:07:59.988Z,31.3
2022-07-29T13:10:15.207Z,30.1
2022-07-29T13:12:30.041Z,31.4
2022-07-29T13:14:44.929Z,31.1
2022-07-29T13:16:59.925Z,30.8
2022-07-29T13:19:14.699Z,30.1
2022-07-29T13:21:30.698Z,31.9
2022-07-29T13:23:44.377Z,31.9
2022-07-29T13:25:59.143Z,31.9
2022-07-29T13:28:14.139Z,31.9
2022-07-29T13:30:28.854Z,31.4
2022-07-29T13:32:43.680Z,30.8
2022-07-29T13:34:58.544Z,30.1
2022-07-29T13:37:13.316Z,30.6
2022-07-29T13:39:28.645Z,29.9
2022-07-29T13:41:43.437Z,30
2022-07-29T13:43:57.918Z,30.1
2022-07-29T13:46:13.101Z,29.2
2022-07-29T13:48:27.672Z,29.4
2022-07-29T13:50:42.510Z,29
2022-07-29T13:52:56.941Z,29.3
2022-07-29T13:55:12.362Z,29.5
2022-07-29T13:57:27.072Z,29.4
2022-07-29T13:59:41.872Z,29.6
2022-07-29T14:01:56.428Z,29.4
2022-07-29T14:04:12.204Z,28.9
2022-07-29T14:06:26.547Z,29.6
2022-07-29T14:08:41.312Z,29.7
2022-07-29T14:10:56.064Z,29.6
2022-07-29T14:13:24.843Z,29.3
2022-07-29T14:15:27.859Z,29.5
2022-07-29T14:17:42.186Z,28.9
2022-07-29T14:19:57.563Z,28.4
2022-07-29T14:22:12.505Z,28.3
2022-07-29T14:24:27.348Z,28.8
2022-07-29T14:26:42.146Z,28.6
2022-07-29T14:28:57.971Z,28.8
2022-07-29T14:31:13.458Z,28.9
2022-07-29T14:33:28.343Z,28.5
2022-07-29T14:35:43.119Z,28.2
2022-07-29T14:37:58.005Z,29
2022-07-29T14:40:12.691Z,28.8
2022-07-29T14:42:27.625Z,29.1
2022-07-29T14:44:42.932Z,29.1
2022-07-29T14:46:57.413Z,29.4
2022-07-29T14:49:12.163Z,29.4
2022-07-29T14:51:32.157Z,29.4
2022-07-29T14:53:41.870Z,29.7
2022-07-29T14:55:56.783Z,29.8
2022-07-29T14:58:23.524Z,29
2022-07-29T15:00:38.311Z,29.7
2022-07-29T15:03:05.204Z,29.1
2022-07-29T15:05:19.289Z,29.3
2022-07-29T15:07:34.939Z,28.9
2022-07-29T15:09:50.216Z,28.7
2022-07-29T15:12:04.872Z,28.4
2022-07-29T15:14:19.882Z,28.7
2022-07-29T15:16:34.576Z,28.7
2022-07-29T15:18:49.634Z,28.8
2022-07-29T15:21:04.566Z,28.9
2022-07-29T15:23:19.716Z,28.6
2022-07-29T15:25:34.154Z,28.4
2022-07-29T15:27:52.427Z,28.3
2022-07-29T15:30:04.553Z,27.9
2022-07-29T15:32:20.554Z,27.6
2022-07-29T15:34:40.097Z,29.2
2022-07-29T15:37:08.907Z,29.4
2022-07-29T15:39:23.826Z,28.8
2022-07-29T15:41:38.702Z,29.9
2022-07-29T15:43:53.485Z,29.8
2022-07-29T15:46:08.255Z,27.4
2022-07-29T15:48:23.386Z,29.6
2022-07-29T15:50:37.965Z,28.7
2022-07-29T15:52:53.164Z,27.6
2022-07-29T15:55:07.624Z,27.1
2022-07-29T15:57:22.531Z,27.5
2022-07-29T16:01:52.237Z,28.3
2022-07-29T16:04:07.096Z,28.1
2022-07-29T16:06:21.974Z,27.5
2022-07-29T16:08:36.940Z,27.4
2022-07-29T16:10:51.640Z,27.4
2022-07-29T16:13:06.509Z,27.5
2022-07-29T16:15:21.287Z,28.1
2022-07-29T16:17:36.206Z,26.5
2022-07-29T16:19:51.380Z,27.8
2022-07-29T16:22:05.883Z,27.8
2022-07-29T16:24:20.630Z,28.1
2022-07-29T16:26:46.754Z,28.3
2022-07-29T16:29:01.470Z,29.3
2022-07-29T16:31:16.546Z,28.6
2022-07-29T16:33:53.527Z,27.1
2022-07-29T16:35:57.649Z,27
2022-07-29T16:38:12.486Z,27.1
2022-07-29T16:40:27.373Z,28.8
2022-07-29T16:42:48.787Z,27.9
2022-07-29T16:45:03.512Z,27.5
2022-07-29T16:47:18.378Z,27.9
2022-07-29T16:51:48.116Z,27.1
2022-07-29T16:54:03.110Z,28.1
2022-07-29T16:56:18.037Z,26.8
2022-07-29T16:58:33.001Z,27.4
2022-07-29T17:00:47.892Z,27.1
2022-07-29T17:03:03.065Z,27.1
2022-07-29T17:05:17.851Z,27.6
2022-07-29T17:07:41.554Z,27.8
2022-07-29T17:09:59.493Z,27.9
2022-07-29T17:12:26.865Z,28.1
2022-07-29T17:14:42.109Z,28
2022-07-29T17:17:00.032Z,26.7
2022-07-29T17:19:13.182Z,27
2022-07-29T17:21:28.232Z,26.6
2022-07-29T17:23:42.829Z,27
2022-07-29T17:25:57.845Z,26.6
2022-07-29T17:28:12.903Z,26.7
2022-07-29T17:30:27.416Z,28.6
2022-07-29T17:32:42.655Z,28.6
2022-07-29T17:34:57.175Z,26.3
2022-07-29T17:37:12.032Z,26.2
2022-07-29T17:39:26.854Z,28.4
2022-07-29T17:41:41.708Z,28.4
2022-07-29T17:43:56.568Z,28.7
2022-07-29T17:46:21.556Z,26.2
2022-07-29T17:48:36.503Z,26.1
2022-07-29T17:50:51.247Z,27.7
2022-07-29T17:53:09.643Z,27.9
2022-07-29T17:55:20.768Z,27.5
2022-07-29T17:57:35.694Z,27.1
2022-07-29T17:59:50.516Z,27.7
2022-07-29T18:02:05.445Z,27.8
2022-07-29T18:04:20.302Z,27.9
2022-07-29T18:06:35.100Z,25.6
2022-07-29T18:08:49.953Z,26.8
2022-07-29T18:11:05.078Z,26.9
2022-07-29T18:13:19.704Z,25.5
2022-07-29T18:15:34.571Z,26.8
2022-07-29T18:17:59.347Z,27.6
2022-07-29T18:20:14.738Z,27.2
2022-07-29T18:22:32.860Z,27
2022-07-29T18:24:47.644Z,27.4
2022-07-29T18:27:02.722Z,26.6
2022-07-29T18:29:17.349Z,25.1
2022-07-29T18:31:32.229Z,25.2
2022-07-29T18:33:59.925Z,25.9
2022-07-29T18:36:13.564Z,25
2022-07-29T18:38:49.965Z,24.9
2022-07-29T18:41:04.792Z,24.5
2022-07-29T18:43:19.588Z,25.7
2022-07-29T18:45:34.445Z,26.8
2022-07-29T18:47:49.293Z,26.7
2022-07-29T18:50:04.164Z,26.5
2022-07-29T18:52:19.131Z,24.8
2022-07-29T18:54:33.830Z,24.4
2022-07-29T18:56:48.665Z,25.3
2022-07-29T18:59:42.408Z,25.4
2022-07-29T19:01:57.905Z,26.6
2022-07-29T19:04:12.918Z,27.8
2022-07-29T19:06:27.687Z,25.8
2022-07-29T19:08:42.805Z,26
2022-07-29T19:10:57.603Z,25.7
2022-07-29T19:13:13.344Z,24.4
2022-07-29T19:15:27.518Z,25.3
2022-07-29T19:17:42.376Z,24.4
2022-07-29T19:19:57.004Z,25.3
2022-07-29T19:22:12.281Z,24.4
2022-07-29T19:24:38.846Z,24.5
2022-07-29T19:26:56.061Z,25.2
2022-07-29T19:29:10.631Z,24.3
2022-07-29T19:31:25.667Z,24.3
2022-07-29T19:33:40.618Z,24.8
2022-07-29T19:35:55.258Z,24.9
2022-07-29T19:38:10.075Z,24.3
2022-07-29T19:40:24.392Z,24.3
2022-07-29T19:42:39.790Z,24.3
2022-07-29T19:45:10.008Z,24.3
2022-07-29T19:47:25.426Z,23.8
2022-07-29T19:49:39.723Z,23.9
2022-07-29T19:51:54.702Z,23.5
2022-07-29T19:54:09.390Z,23.8
2022-07-29T19:56:24.181Z,23.7
2022-07-29T19:58:39.196Z,23.8
2022-07-29T20:00:53.924Z,23.9
2022-07-29T20:03:08.903Z,24.2
2022-07-29T20:05:27.787Z,24.1
2022-07-29T20:07:43.851Z,23.8
2022-07-29T20:09:58.101Z,24
2022-07-29T20:12:13.546Z,23.1
2022-07-29T20:14:28.344Z,23.9
2022-07-29T20:16:43.279Z,24.1
2022-07-29T20:18:58.099Z,24.1
2022-07-29T20:21:12.940Z,24.9
2022-07-29T20:23:27.841Z,25.8
2022-07-29T20:25:42.604Z,25.9
2022-07-29T20:27:57.469Z,25.6
2022-07-29T20:30:12.247Z,25.8
2022-07-29T20:32:27.144Z,25.2
2022-07-29T20:34:42.023Z,24.7
2022-07-29T20:36:57.196Z,25.6
2022-07-29T20:39:13.281Z,25.3
2022-07-29T20:41:28.144Z,24.4
2022-07-29T20:43:42.879Z,25.5
2022-07-29T20:45:58.024Z,25.3
2022-07-29T20:48:12.683Z,23.7
2022-07-29T20:50:27.070Z,25.3
2022-07-29T20:52:41.814Z,24.8
2022-07-29T20:54:57.219Z,25.5
2022-07-29T20:57:12.059Z,24.1
2022-07-29T20:59:26.907Z,24.2
2022-07-29T21:01:41.799Z,23.8
2022-07-29T21:03:56.765Z,23.1
2022-07-29T21:06:12.360Z,23.1
2022-07-29T21:08:26.220Z,23.4
2022-07-29T21:10:41.123Z,23.4
2022-07-29T21:13:00.807Z,23.2
2022-07-29T21:15:15.481Z,23.1
2022-07-29T21:17:30.400Z,22.8
2022-07-29T21:19:45.428Z,22.6
2022-07-29T21:22:00.395Z,22.8
2022-07-29T21:24:15.075Z,23.1
2022-07-29T21:26:29.989Z,22.7
2022-07-29T21:28:52.055Z,23.1
2022-07-29T21:31:06.854Z,22.8
2022-07-29T21:33:21.889Z,23.3
2022-07-29T21:36:20.509Z,23
2022-07-29T21:38:39.927Z,23.4
2022-07-29T21:40:54.757Z,23.7
2022-07-29T21:43:09.596Z,22.7
2022-07-29T21:45:24.461Z,22.8
2022-07-29T21:47:39.377Z,23.1
2022-07-29T21:49:54.114Z,23.5
2022-07-29T21:52:09.121Z,23.6
2022-07-29T21:54:23.665Z,22.8
2022-07-29T21:56:38.670Z,22.9
2022-07-29T21:58:53.430Z,22.6
2022-07-29T22:01:08.389Z,22.9
2022-07-29T22:03:23.080Z,21.7
2022-07-29T22:05:37.979Z,23
2022-07-29T22:07:59.192Z,22.8
2022-07-29T22:10:14.539Z,22.8
2022-07-29T22:12:29.495Z,22.4
2022-07-29T22:14:44.336Z,22.6
2022-07-29T22:16:59.385Z,22.1
2022-07-29T22:19:14.382Z,22.5
2022-07-29T22:21:29.219Z,22.8
2022-07-29T22:23:44.639Z,22.4
2022-07-29T22:25:59.669Z,22.3
2022-07-29T22:28:14.183Z,22.6
2022-07-29T22:30:29.100Z,22.5
2022-07-29T22:32:43.887Z,22.2
2022-07-29T22:34:59.007Z,22.6
2022-07-29T22:37:13.850Z,22.4
2022-07-29T22:39:28.913Z,22.4
2022-07-29T22:41:43.816Z,22.5
2022-07-29T22:43:59.655Z,22
2022-07-29T22:46:13.791Z,22.8
2022-07-29T22:48:36.132Z,22.1
2022-07-29T22:50:50.990Z,22.3
2022-07-29T22:53:05.870Z,22.6
2022-07-29T22:55:20.671Z,22.4
2022-07-29T22:57:35.498Z,22.9
2022-07-29T22:59:50.357Z,22.3
2022-07-29T23:02:09.597Z,22.1
2022-07-29T23:04:25.746Z,22.1
2022-07-29T23:06:39.110Z,22.3
2022-07-29T23:08:54.017Z,22.4
2022-07-29T23:11:08.802Z,22.6
2022-07-29T23:13:24.276Z,22.6
2022-07-29T23:15:38.579Z,22.6
2022-07-29T23:17:53.445Z,22.7
2022-07-29T23:20:08.273Z,22.8
2022-07-29T23:22:23.082Z,22.7
2022-07-29T23:24:37.867Z,22.3
2022-07-29T23:26:52.797Z,22.6
2022-07-29T23:29:07.599Z,22.2
2022-07-29T23:31:22.579Z,22.6
2022-07-29T23:33:37.489Z,22.6
2022-07-29T23:35:52.327Z,22.6
2022-07-29T23:38:07.154Z,22.3
2022-07-29T23:40:21.997Z,22.1
2022-07-29T23:42:36.749Z,22.6
2022-07-29T23:44:51.636Z,22.6
2022-07-29T23:47:06.431Z,22.4
2022-07-29T23:49:21.349Z,22.8
2022-07-29T23:51:36.177Z,22.8
2022-07-29T23:53:52.941Z,22.7
2022-07-29T23:56:26.568Z,22.3
2022-07-29T23:58:41.385Z,22.8
